Time;durP1;ratioP1;P1;durP2;ratioP2;P2;SDS_P1;SDS_P2;PMS_P1;PMS_P2;Temp;Humidity;BMP_temperature;BMP_pressure;BME280_temperature;BME280_humidity;BME280_pressure;Samples;Min_cycle;Max_cycle;Signal;HPM_P1;HPM_P2
2022/05/12 00:01:11;;;;;;;16.50;15.90;;;21.20;16.80;;;;;;5014303;28;20209;-80
2022/05/12 00:03:36;;;;;;;16.60;15.90;;;21.10;17.00;;;;;;5014518;28;20257;-80
2022/05/12 00:06:03;;;;;;;16.23;15.40;;;21.10;17.10;;;;;;5014189;28;20205;-80
2022/05/12 00:08:29;;;;;;;16.40;15.80;;;21.10;17.40;;;;;;5014494;28;20260;-80
2022/05/12 00:10:55;;;;;;;16.50;15.80;;;21.10;17.60;;;;;;5014284;28;20523;-79
2022/05/12 00:13:21;;;;;;;16.53;15.83;;;21.00;17.80;;;;;;5014243;28;20208;-79
2022/05/12 00:15:48;;;;;;;16.00;15.40;;;21.00;17.60;;;;;;5014033;28;20851;-79
2022/05/12 00:18:14;;;;;;;16.77;16.07;;;21.10;17.70;;;;;;5014114;28;20440;-80
2022/05/12 00:20:41;;;;;;;17.20;16.40;;;21.10;17.50;;;;;;5013952;28;20891;-79
2022/05/12 00:23:16;;;;;;;16.00;15.40;;;21.00;17.70;;;;;;5014300;28;20634;-79
2022/05/12 00:25:45;;;;;;;16.00;15.40;;;21.00;18.00;;;;;;5014277;28;20787;-80
2022/05/12 00:28:11;;;;;;;16.00;15.40;;;20.90;18.20;;;;;;5014813;28;20503;-80
2022/05/12 00:30:38;;;;;;;16.20;15.50;;;20.90;18.20;;;;;;5015251;28;20558;-81
2022/05/12 00:33:05;;;;;;;16.50;15.77;;;20.80;18.70;;;;;;5014937;28;20420;-89
2022/05/12 00:35:31;;;;;;;16.57;15.87;;;20.80;18.50;;;;;;5030430;22;20495;-81
2022/05/12 00:38:03;;;;;;;16.50;15.70;;;20.70;18.60;;;;;;5035994;28;20412;-89
2022/05/12 00:40:29;;;;;;;16.47;15.60;;;20.70;18.70;;;;;;5035279;28;20462;-81
2022/05/12 00:43:07;;;;;;;16.57;15.93;;;20.70;19.20;;;;;;5033744;28;20469;-90
2022/05/12 00:45:35;;;;;;;16.53;15.83;;;20.70;19.20;;;;;;5033590;28;20419;-88
2022/05/12 00:48:03;;;;;;;16.90;16.00;;;20.70;19.40;;;;;;5033459;28;20412;-89
2022/05/12 00:50:36;;;;;;;17.37;16.63;;;20.60;19.50;;;;;;5033640;28;20434;-89
2022/05/12 00:53:04;;;;;;;16.40;15.73;;;20.60;19.40;;;;;;5033721;28;20420;-89
2022/05/12 00:55:33;;;;;;;16.53;15.90;;;20.50;19.70;;;;;;5034673;28;20416;-89
2022/05/12 00:58:02;;;;;;;16.40;15.70;;;20.50;20.00;;;;;;5033017;28;20558;-88
2022/05/12 01:00:27;;;;;;;16.47;15.80;;;20.50;19.80;;;;;;5033162;28;20455;-89
2022/05/12 01:03:00;;;;;;;16.47;15.87;;;20.50;19.90;;;;;;5033244;28;20426;-89
2022/05/12 01:05:27;;;;;;;16.63;15.93;;;20.50;20.10;;;;;;5033234;28;20263;-89
2022/05/12 01:07:55;;;;;;;16.10;15.40;;;20.40;20.00;;;;;;5033423;28;20810;-87
2022/05/12 01:10:21;;;;;;;16.77;16.00;;;20.40;20.10;;;;;;5033217;28;20823;-88
2022/05/12 01:12:49;;;;;;;16.13;15.53;;;20.30;20.50;;;;;;5033251;28;20415;-89
2022/05/12 01:15:17;;;;;;;16.50;15.80;;;20.30;20.50;;;;;;5032794;28;20420;-88
2022/05/12 01:17:43;;;;;;;16.97;16.23;;;20.30;20.40;;;;;;5033258;28;20430;-89
2022/05/12 01:20:11;;;;;;;16.20;15.53;;;20.30;20.80;;;;;;5033172;28;20546;-89
2022/05/12 01:22:48;;;;;;;16.20;15.53;;;20.30;21.00;;;;;;5033154;28;20423;-81
2022/05/12 01:25:18;;;;;;;16.10;15.40;;;20.20;20.80;;;;;;5032672;28;20415;-81
2022/05/12 01:27:44;;;;;;;16.60;16.00;;;20.30;21.50;;;;;;5032503;28;20416;-81
2022/05/12 01:30:12;;;;;;;16.47;15.77;;;20.30;21.40;;;;;;5032845;28;20422;-80
2022/05/12 01:32:39;;;;;;;15.83;15.13;;;20.30;21.60;;;;;;5032621;28;20177;-80
2022/05/12 01:35:06;;;;;;;17.00;16.17;;;20.40;21.20;;;;;;5032375;28;20435;-80
2022/05/12 01:37:37;;;;;;;16.70;16.00;;;20.40;21.40;;;;;;5032605;28;20415;-80
2022/05/12 01:40:04;;;;;;;15.77;15.10;;;20.40;21.70;;;;;;5033751;28;20404;-81
2022/05/12 01:42:29;;;;;;;16.20;15.50;;;20.40;21.80;;;;;;5032540;28;20422;-80
2022/05/12 01:44:58;;;;;;;15.93;15.33;;;20.30;21.90;;;;;;5031783;28;20411;-80
2022/05/12 01:47:23;;;;;;;16.93;15.80;;;20.40;22.00;;;;;;5032712;28;20179;-80
2022/05/12 01:49:50;;;;;;;16.50;15.80;;;20.40;22.00;;;;;;5034397;28;20404;-80
2022/05/12 01:52:15;;;;;;;16.67;15.70;;;20.50;21.90;;;;;;5032724;28;20258;-80
2022/05/12 01:54:41;;;;;;;16.63;15.90;;;20.50;22.00;;;;;;5032321;28;20416;-81
2022/05/12 01:57:07;;;;;;;16.00;15.30;;;20.50;21.80;;;;;;5032588;28;20180;-81
2022/05/12 01:59:32;;;;;;;17.00;16.00;;;20.50;22.00;;;;;;5032409;28;20567;-81
2022/05/12 02:01:58;;;;;;;16.10;15.40;;;20.50;22.00;;;;;;5031967;28;20239;-81
2022/05/12 02:04:23;;;;;;;16.50;15.70;;;20.60;22.10;;;;;;5032133;28;20173;-81
2022/05/12 02:06:49;;;;;;;16.30;15.70;;;20.60;22.10;;;;;;5031917;28;20176;-81
2022/05/12 02:09:16;;;;;;;16.33;15.63;;;20.50;22.10;;;;;;5032084;28;20280;-81
2022/05/12 02:11:42;;;;;;;16.83;16.13;;;20.50;22.30;;;;;;5032017;28;20177;-81
2022/05/12 02:14:08;;;;;;;16.93;16.23;;;20.50;22.70;;;;;;5031699;28;20419;-81
2022/05/12 02:16:35;;;;;;;17.07;16.37;;;20.60;22.90;;;;;;5031639;28;20195;-81
2022/05/12 02:19:04;;;;;;;18.33;17.07;;;20.50;22.80;;;;;;5031509;28;20510;-81
2022/05/12 02:21:30;;;;;;;16.70;15.90;;;20.50;23.00;;;;;;5031560;28;20546;-81
2022/05/12 02:23:55;;;;;;;16.93;16.33;;;20.50;23.00;;;;;;5031694;28;20499;-81
2022/05/12 02:26:21;;;;;;;17.30;16.60;;;20.50;23.20;;;;;;5031542;28;20548;-81
2022/05/12 02:28:47;;;;;;;16.63;16.03;;;20.50;23.20;;;;;;5031654;28;20176;-81
2022/05/12 02:31:13;;;;;;;16.50;15.60;;;20.50;23.80;;;;;;5031393;28;20176;-81
2022/05/12 02:33:39;;;;;;;17.00;16.00;;;20.40;23.50;;;;;;5015479;28;20201;-81
2022/05/12 02:36:06;;;;;;;16.40;15.70;;;20.20;23.90;;;;;;5031137;28;20524;-81
2022/05/12 02:38:31;;;;;;;16.60;16.00;;;20.30;24.50;;;;;;5031439;28;20181;-81
2022/05/12 02:40:57;;;;;;;16.93;16.23;;;20.20;24.20;;;;;;5031216;28;20569;-80
2022/05/12 02:43:23;;;;;;;18.03;17.13;;;20.10;24.50;;;;;;5031308;28;20184;-81
2022/05/12 02:45:58;;;;;;;18.40;17.50;;;20.10;24.70;;;;;;5031360;28;20180;-81
2022/05/12 02:48:27;;;;;;;17.83;16.93;;;20.10;25.20;;;;;;5031082;28;20198;-80
2022/05/12 02:50:53;;;;;;;18.47;17.67;;;20.00;25.50;;;;;;5030926;28;20427;-81
2022/05/12 02:53:19;;;;;;;17.40;16.67;;;20.10;25.90;;;;;;5030987;28;20423;-81
2022/05/12 02:55:45;;;;;;;18.30;17.40;;;20.10;26.40;;;;;;5030792;28;20508;-81
2022/05/12 02:58:11;;;;;;;18.00;17.10;;;20.10;26.50;;;;;;5031267;28;20187;-81
2022/05/12 03:00:37;;;;;;;17.67;16.97;;;20.10;27.30;;;;;;5031168;28;20459;-81
2022/05/12 03:03:05;;;;;;;17.37;16.77;;;20.00;27.30;;;;;;5030974;28;20637;-81
2022/05/12 03:05:31;;;;;;;18.47;17.57;;;20.10;27.60;;;;;;5030902;28;20428;-81
2022/05/12 03:07:57;;;;;;;19.73;18.63;;;20.10;27.40;;;;;;5030931;28;20408;-81
2022/05/12 03:10:23;;;;;;;18.27;17.53;;;20.20;27.60;;;;;;5030867;28;20420;-81
2022/05/12 03:12:50;;;;;;;18.73;17.87;;;20.10;27.70;;;;;;5030668;28;20788;-81
2022/05/12 03:15:16;;;;;;;19.10;18.17;;;20.10;27.90;;;;;;5030769;28;20670;-89
2022/05/12 03:17:44;;;;;;;18.20;17.50;;;20.00;28.40;;;;;;5031120;28;20602;-89
2022/05/12 03:20:13;;;;;;;19.23;18.47;;;19.90;28.40;;;;;;5030821;28;20876;-89
2022/05/12 03:22:39;;;;;;;18.43;17.73;;;20.00;28.50;;;;;;5030963;28;20412;-89
2022/05/12 03:25:08;;;;;;;18.40;17.60;;;20.00;28.50;;;;;;5031157;28;20431;-89
2022/05/12 03:27:34;;;;;;;17.70;17.00;;;20.00;28.50;;;;;;5030830;28;20379;-89
2022/05/12 03:29:59;;;;;;;18.80;18.00;;;20.00;28.80;;;;;;5031107;28;20550;-89
2022/05/12 03:32:25;;;;;;;19.30;18.50;;;19.90;28.90;;;;;;5030821;28;20180;-89
2022/05/12 03:34:50;;;;;;;18.47;17.40;;;20.00;29.00;;;;;;5030835;28;20208;-89
2022/05/12 03:37:17;;;;;;;18.90;17.40;;;19.90;29.00;;;;;;5031015;28;20176;-89
2022/05/12 03:39:44;;;;;;;18.50;17.70;;;19.90;29.10;;;;;;5030711;28;20238;-89
2022/05/12 03:42:15;;;;;;;18.20;17.50;;;19.80;29.30;;;;;;5030772;28;20506;-90
2022/05/12 03:44:46;;;;;;;19.57;18.40;;;19.90;29.40;;;;;;5030708;28;20423;-89
2022/05/12 03:47:20;;;;;;;17.90;16.70;;;19.90;29.60;;;;;;5031148;28;20507;-90
2022/05/12 03:49:51;;;;;;;17.80;17.10;;;19.80;29.90;;;;;;5030651;28;20420;-89
2022/05/12 03:52:17;;;;;;;17.53;16.87;;;19.80;29.80;;;;;;5030859;28;20424;-89
2022/05/12 03:54:44;;;;;;;17.07;16.23;;;19.80;29.30;;;;;;5030393;28;20420;-88
2022/05/12 03:57:11;;;;;;;17.23;16.63;;;19.90;29.10;;;;;;5030693;28;20854;-90
2022/05/12 03:59:38;;;;;;;17.63;16.83;;;19.90;29.00;;;;;;5031009;28;20426;-89
2022/05/12 04:02:08;;;;;;;19.00;18.10;;;19.90;29.20;;;;;;5030476;28;20883;-88
2022/05/12 04:04:34;;;;;;;19.80;19.00;;;19.90;29.20;;;;;;5031877;28;20435;-89
2022/05/12 04:07:01;;;;;;;19.03;18.30;;;20.00;28.90;;;;;;5030843;28;20415;-85
2022/05/12 04:09:27;;;;;;;18.40;17.70;;;20.00;29.10;;;;;;5035455;28;20824;-84
2022/05/12 04:11:53;;;;;;;19.10;18.40;;;20.10;28.90;;;;;;5035857;28;20909;-84
2022/05/12 04:14:19;;;;;;;19.83;18.73;;;20.00;28.90;;;;;;5034704;28;20415;-85
2022/05/12 04:16:45;;;;;;;19.10;18.40;;;20.00;29.30;;;;;;5034788;28;20434;-84
2022/05/12 04:19:12;;;;;;;18.17;17.57;;;19.90;29.40;;;;;;5034887;28;20185;-88
2022/05/12 04:21:38;;;;;;;19.23;18.50;;;19.90;29.90;;;;;;5035063;28;20602;-87
2022/05/12 04:24:05;;;;;;;19.27;18.57;;;19.70;29.80;;;;;;5034441;28;20430;-87
2022/05/12 04:26:36;;;;;;;19.10;18.30;;;19.90;29.90;;;;;;5034225;28;20259;-86
2022/05/12 04:29:02;;;;;;;19.70;18.90;;;19.90;29.90;;;;;;5033903;28;20466;-87
2022/05/12 04:31:28;;;;;;;18.47;17.77;;;19.90;29.90;;;;;;5034201;28;20462;-88
2022/05/12 04:36:38;;;;;;;19.70;19.00;;;20.00;30.30;;;;;;5035445;28;20299;-87
2022/05/12 04:39:05;;;;;;;19.73;18.70;;;20.00;30.00;;;;;;5033843;28;20454;-86
2022/05/12 04:41:31;;;;;;;19.23;18.53;;;20.00;30.70;;;;;;5033969;28;20737;-88
2022/05/12 04:43:58;;;;;;;18.90;18.20;;;20.00;30.70;;;;;;5033410;28;20419;-88
2022/05/12 04:46:25;;;;;;;19.40;18.70;;;19.90;31.40;;;;;;5033847;28;20505;-89
2022/05/12 04:48:51;;;;;;;19.30;18.40;;;19.80;30.50;;;;;;5033528;28;20422;-87
2022/05/12 04:51:18;;;;;;;19.23;18.43;;;19.80;30.10;;;;;;5033579;28;20455;-86
2022/05/12 04:53:47;;;;;;;20.27;19.37;;;19.80;31.30;;;;;;5033748;28;20423;-84
2022/05/12 04:56:13;;;;;;;20.10;19.30;;;19.80;31.10;;;;;;5033494;28;20434;-87
2022/05/12 04:58:39;;;;;;;18.70;17.90;;;19.80;31.40;;;;;;5030748;28;20479;-88
2022/05/12 05:01:05;;;;;;;18.97;18.27;;;19.80;31.70;;;;;;5029535;28;20525;-85
2022/05/12 05:03:30;;;;;;;19.17;18.37;;;19.70;31.70;;;;;;5030751;28;20328;-86
2022/05/12 05:05:56;;;;;;;20.23;19.17;;;19.80;31.90;;;;;;5031243;28;20972;-86
2022/05/12 05:08:23;;;;;;;20.20;19.40;;;19.80;31.70;;;;;;5032421;28;20637;-85
2022/05/12 05:10:49;;;;;;;19.50;18.60;;;19.80;32.30;;;;;;5032155;28;20230;-85
2022/05/12 05:13:18;;;;;;;18.57;17.73;;;19.80;32.40;;;;;;5027191;28;20922;-85
2022/05/12 05:15:45;;;;;;;19.27;18.57;;;19.80;32.80;;;;;;5032099;28;20829;-85
2022/05/12 05:18:12;;;;;;;19.17;18.47;;;19.80;32.60;;;;;;5032233;28;20411;-84
2022/05/12 05:20:39;;;;;;;20.00;19.20;;;19.90;32.50;;;;;;5032179;28;20459;-85
2022/05/12 05:23:04;;;;;;;19.40;18.70;;;19.80;32.70;;;;;;5033741;28;20445;-85
2022/05/12 05:25:33;;;;;;;20.10;19.30;;;19.90;32.50;;;;;;5034015;28;20419;-86
2022/05/12 05:27:58;;;;;;;19.57;18.87;;;19.90;32.50;;;;;;5034034;28;20180;-86
2022/05/12 05:30:26;;;;;;;18.10;17.40;;;19.90;32.40;;;;;;5033991;28;20428;-80
2022/05/12 05:32:55;;;;;;;19.40;18.73;;;20.00;32.30;;;;;;5033470;28;20188;-81
2022/05/12 05:35:21;;;;;;;19.30;18.60;;;20.10;32.30;;;;;;5032790;28;20436;-86
2022/05/12 05:37:48;;;;;;;19.40;18.70;;;20.10;32.10;;;;;;5033727;28;20423;-86
2022/05/12 05:40:18;;;;;;;20.40;19.50;;;20.20;32.00;;;;;;5032875;28;20467;-87
2022/05/12 05:42:45;;;;;;;19.30;18.60;;;20.10;32.30;;;;;;5032383;28;20420;-86
2022/05/12 05:45:12;;;;;;;19.67;18.80;;;20.00;32.70;;;;;;5032371;28;20996;-87
2022/05/12 05:47:45;;;;;;;18.50;17.70;;;20.00;33.00;;;;;;5032605;28;20503;-87
2022/05/12 05:50:14;;;;;;;19.97;19.27;;;20.10;32.60;;;;;;5032784;28;20931;-88
2022/05/12 05:55:24;;;;;;;19.80;19.00;;;20.10;32.90;;;;;;5033717;28;20553;-88
2022/05/12 05:57:50;;;;;;;19.83;18.80;;;20.10;32.90;;;;;;5032123;28;20502;-87
2022/05/12 06:00:17;;;;;;;18.60;18.00;;;20.00;33.40;;;;;;5032219;28;20204;-87
2022/05/12 06:02:43;;;;;;;19.70;18.90;;;20.10;33.00;;;;;;5032637;28;20544;-87
2022/05/12 06:05:09;;;;;;;19.47;18.57;;;20.10;32.90;;;;;;5031854;28;20419;-87
2022/05/12 06:07:35;;;;;;;20.50;19.47;;;20.00;33.10;;;;;;5032182;28;20815;-87
2022/05/12 06:10:01;;;;;;;19.77;18.90;;;20.00;33.30;;;;;;5031882;28;20427;-87
2022/05/12 06:12:27;;;;;;;19.87;19.03;;;20.10;33.70;;;;;;5032078;28;20424;-87
2022/05/12 06:14:53;;;;;;;20.10;19.33;;;20.00;33.50;;;;;;5031943;28;20791;-87
2022/05/12 06:17:19;;;;;;;20.50;19.60;;;20.10;33.30;;;;;;5031886;28;20415;-86
2022/05/12 06:19:44;;;;;;;19.83;19.00;;;20.10;33.70;;;;;;5031370;28;20641;-87
2022/05/12 06:22:10;;;;;;;19.80;19.10;;;20.20;33.30;;;;;;5031526;28;20243;-90
2022/05/12 06:24:38;;;;;;;18.50;17.80;;;20.20;32.80;;;;;;5031268;28;20741;-86
2022/05/12 06:27:04;;;;;;;19.67;18.83;;;20.20;32.70;;;;;;5031285;28;20522;-86
2022/05/12 06:29:30;;;;;;;19.53;18.77;;;20.20;33.20;;;;;;5031662;28;20465;-86
2022/05/12 06:31:56;;;;;;;19.37;18.50;;;20.20;33.00;;;;;;5031138;28;20833;-86
2022/05/12 06:34:21;;;;;;;19.60;18.80;;;20.10;33.20;;;;;;5031402;28;20180;-86
2022/05/12 06:36:47;;;;;;;19.67;18.97;;;20.20;34.20;;;;;;5031098;28;20242;-86
2022/05/12 06:39:13;;;;;;;18.37;17.20;;;20.20;33.50;;;;;;5031391;28;20177;-86
2022/05/12 06:41:38;;;;;;;20.20;19.40;;;20.20;33.70;;;;;;5031118;28;20219;-85
2022/05/12 06:44:05;;;;;;;19.67;18.97;;;20.20;33.80;;;;;;5031107;28;20184;-86
2022/05/12 06:46:30;;;;;;;20.53;19.73;;;20.20;33.00;;;;;;5031198;28;20543;-86
2022/05/12 06:48:57;;;;;;;20.50;19.70;;;20.20;33.50;;;;;;5031203;28;20430;-85
2022/05/12 06:51:23;;;;;;;19.73;18.63;;;20.20;34.50;;;;;;5031330;28;20184;-85
2022/05/12 06:53:48;;;;;;;20.20;19.30;;;20.30;33.90;;;;;;5031884;28;20438;-86
2022/05/12 06:56:14;;;;;;;19.63;18.83;;;20.20;34.10;;;;;;5031895;28;20220;-86
2022/05/12 06:58:40;;;;;;;19.07;18.37;;;20.10;33.60;;;;;;5032142;28;20191;-86
2022/05/12 07:01:06;;;;;;;19.30;18.60;;;20.20;34.00;;;;;;5032255;28;20215;-80
2022/05/12 07:03:32;;;;;;;19.20;18.50;;;20.20;34.40;;;;;;5032336;28;20506;-86
2022/05/12 07:05:58;;;;;;;19.33;18.57;;;20.10;34.50;;;;;;5032241;28;20423;-87
2022/05/12 07:08:26;;;;;;;18.63;17.93;;;20.10;34.80;;;;;;5032117;28;20407;-80
2022/05/12 07:10:52;;;;;;;18.43;17.73;;;20.00;34.80;;;;;;5030761;28;20452;-87
2022/05/12 07:13:20;;;;;;;19.50;18.80;;;20.10;34.50;;;;;;5030982;28;20451;-88
2022/05/12 07:15:47;;;;;;;20.07;18.90;;;20.10;34.80;;;;;;5030953;28;20463;-86
2022/05/12 07:18:15;;;;;;;19.07;18.30;;;20.10;34.70;;;;;;5031289;28;20846;-87
2022/05/12 07:28:54;;;;;;;19.40;18.60;;;20.00;35.60;;;;;;5032066;28;20966;-83
2022/05/12 07:31:21;;;;;;;19.10;18.40;;;19.90;35.70;;;;;;5029113;28;20418;-85
2022/05/12 07:33:47;;;;;;;18.63;17.93;;;19.90;35.70;;;;;;5020986;28;20181;-86
2022/05/12 07:36:18;;;;;;;19.30;18.10;;;20.00;34.90;;;;;;5017496;28;20879;-86
2022/05/12 07:38:45;;;;;;;17.97;17.27;;;20.00;35.70;;;;;;5016216;28;20185;-86
2022/05/12 07:41:12;;;;;;;17.27;16.67;;;20.00;35.20;;;;;;5020620;28;20470;-86
2022/05/12 07:43:42;;;;;;;17.20;16.60;;;19.90;35.80;;;;;;5029499;28;20518;-86
2022/05/12 07:46:08;;;;;;;19.50;18.17;;;20.00;36.20;;;;;;5034181;28;20473;-86
2022/05/12 07:48:35;;;;;;;18.63;17.93;;;20.00;35.70;;;;;;5034531;28;20419;-86
2022/05/12 07:51:00;;;;;;;18.17;17.57;;;20.00;35.80;;;;;;5034072;28;20462;-84
2022/05/12 07:53:26;;;;;;;18.03;17.40;;;20.10;35.90;;;;;;5034656;28;20455;-84
2022/05/12 07:55:52;;;;;;;18.50;17.80;;;20.10;36.00;;;;;;5033730;28;20822;-83
2022/05/12 07:58:18;;;;;;;19.73;18.60;;;20.00;35.90;;;;;;5034344;28;20181;-83
2022/05/12 08:00:44;;;;;;;18.50;17.90;;;20.00;36.00;;;;;;5034198;28;20204;-82
2022/05/12 08:03:09;;;;;;;19.13;17.93;;;20.10;36.10;;;;;;5034241;28;20187;-83
2022/05/12 08:05:36;;;;;;;19.13;18.33;;;20.20;35.70;;;;;;5033943;28;20431;-86
2022/05/12 08:08:04;;;;;;;19.20;18.47;;;20.10;37.10;;;;;;5034183;28;20220;-85
2022/05/12 08:10:30;;;;;;;20.03;19.10;;;20.20;37.70;;;;;;5033858;28;20747;-86
2022/05/12 08:12:56;;;;;;;19.57;18.77;;;20.30;36.10;;;;;;5033802;28;20510;-86
2022/05/12 08:15:25;;;;;;;19.63;18.73;;;20.30;35.40;;;;;;5033673;28;21050;-86
2022/05/12 08:17:52;;;;;;;19.07;18.07;;;20.40;36.30;;;;;;5034021;28;20506;-86
2022/05/12 08:20:18;;;;;;;19.60;18.70;;;20.50;36.10;;;;;;5033905;28;20431;-85
2022/05/12 08:22:43;;;;;;;18.70;18.00;;;20.50;36.10;;;;;;5033706;28;20791;-86
2022/05/12 08:25:10;;;;;;;19.30;18.50;;;20.60;35.80;;;;;;5034076;28;20412;-86
2022/05/12 08:27:36;;;;;;;19.53;18.73;;;20.70;35.40;;;;;;5033955;28;20180;-86
2022/05/12 08:30:05;;;;;;;19.70;18.70;;;20.70;35.00;;;;;;5029417;28;20426;-86
2022/05/12 08:32:31;;;;;;;18.90;18.20;;;20.60;34.00;;;;;;5027377;28;20455;-85
2022/05/12 08:34:56;;;;;;;19.60;18.90;;;20.60;35.00;;;;;;5033493;28;20462;-86
2022/05/12 08:37:22;;;;;;;20.50;19.60;;;20.60;34.80;;;;;;5034010;28;20184;-85
2022/05/12 08:39:49;;;;;;;19.33;18.63;;;20.60;35.20;;;;;;5034157;28;20184;-85
2022/05/12 08:42:21;;;;;;;19.53;18.83;;;20.70;35.30;;;;;;5034023;28;20529;-85
2022/05/12 08:44:47;;;;;;;19.50;18.73;;;20.70;34.70;;;;;;5033822;28;20922;-85
2022/05/12 08:47:16;;;;;;;19.57;18.77;;;20.80;34.80;;;;;;5033871;28;20502;-85
2022/05/12 08:49:46;;;;;;;20.07;18.93;;;20.80;35.30;;;;;;5014653;28;20458;-85
2022/05/12 08:52:35;;;;;;;20.00;19.07;;;20.90;34.30;;;;;;5014377;28;20416;-85
2022/05/12 08:55:21;;;;;;;19.50;18.80;;;20.90;34.30;;;;;;5013936;28;20425;-85
2022/05/12 08:58:30;;;;;;;19.87;19.07;;;21.00;32.30;;;;;;5014747;28;20424;-84
2022/05/12 09:01:06;;;;;;;19.50;18.70;;;21.00;32.90;;;;;;5007876;28;20478;-86
2022/05/12 09:03:50;;;;;;;19.87;18.90;;;21.00;32.80;;;;;;5033451;28;20427;-86
2022/05/12 09:06:23;;;;;;;19.73;18.80;;;21.00;34.00;;;;;;5033238;28;20770;-85
2022/05/12 09:09:03;;;;;;;20.30;19.50;;;21.00;33.40;;;;;;5033172;28;20831;-85
2022/05/12 09:11:42;;;;;;;18.63;17.93;;;21.10;33.50;;;;;;5033588;28;20445;-85
2022/05/12 09:14:16;;;;;;;19.30;18.60;;;21.20;33.20;;;;;;5033116;28;20779;-85
2022/05/12 09:16:41;;;;;;;20.30;19.40;;;21.20;34.40;;;;;;5035061;28;20411;-85
2022/05/12 09:19:14;;;;;;;21.23;20.33;;;21.30;34.00;;;;;;5032995;28;21324;-86
2022/05/12 09:21:40;;;;;;;20.27;19.43;;;21.40;33.10;;;;;;5033058;28;20212;-86
2022/05/12 09:24:07;;;;;;;19.53;18.83;;;21.40;32.30;;;;;;5032649;28;20427;-86
2022/05/12 09:26:33;;;;;;;20.23;19.43;;;21.40;32.00;;;;;;5032828;28;20522;-86
2022/05/12 09:29:23;;;;;;;20.33;19.53;;;21.40;32.30;;;;;;5032579;28;20514;-86
2022/05/12 09:31:54;;;;;;;20.37;19.47;;;21.60;33.00;;;;;;5032683;28;20184;-86
2022/05/12 09:34:36;;;;;;;21.13;19.50;;;21.70;31.40;;;;;;5032885;28;20428;-85
2022/05/12 09:37:26;;;;;;;21.17;20.13;;;21.70;31.30;;;;;;5032579;28;20446;-86
2022/05/12 09:39:57;;;;;;;20.30;19.37;;;21.70;31.30;;;;;;5032791;28;20419;-86
2022/05/12 09:42:28;;;;;;;20.20;19.50;;;21.80;31.40;;;;;;5032330;28;20463;-86
2022/05/12 09:44:58;;;;;;;20.30;19.40;;;21.90;30.50;;;;;;5032500;28;20426;-85
2022/05/12 09:47:26;;;;;;;20.60;19.80;;;22.10;30.90;;;;;;5026480;28;20421;-82
2022/05/12 09:50:21;;;;;;;20.47;19.40;;;22.20;30.30;;;;;;5021755;28;20466;-82
2022/05/12 09:53:00;;;;;;;20.30;19.50;;;22.20;31.30;;;;;;5022548;28;20915;-81
2022/05/12 09:55:41;;;;;;;20.23;19.23;;;22.20;30.40;;;;;;5022215;28;20426;-86
2022/05/12 09:58:49;;;;;;;20.57;19.57;;;22.30;29.90;;;;;;5022794;28;20518;-87
2022/05/12 10:01:20;;;;;;;19.53;18.63;;;22.20;30.00;;;;;;5015917;28;20506;-87
2022/05/12 10:09:20;;;;;;;19.83;18.73;;;22.10;30.50;;;;;;5031163;28;20394;-86
2022/05/12 10:12:02;;;;;;;19.90;19.00;;;22.00;30.60;;;;;;5033847;28;20422;-86
2022/05/12 10:14:48;;;;;;;20.07;19.10;;;21.90;31.10;;;;;;5032455;28;20418;-86
2022/05/12 10:17:42;;;;;;;19.60;18.80;;;21.90;31.00;;;;;;5032475;28;20461;-86
2022/05/12 10:20:18;;;;;;;18.33;17.53;;;22.00;31.00;;;;;;5033560;28;20497;-86
2022/05/12 10:22:52;;;;;;;19.03;18.33;;;22.10;30.80;;;;;;5032374;28;20423;-86
2022/05/12 10:25:29;;;;;;;18.90;18.20;;;22.10;31.00;;;;;;5032285;28;20778;-86
2022/05/12 10:28:16;;;;;;;19.10;18.20;;;22.30;31.00;;;;;;5032102;28;20455;-86
2022/05/12 10:30:59;;;;;;;18.50;17.70;;;22.30;31.90;;;;;;5032292;28;20451;-85
2022/05/12 10:33:49;;;;;;;20.20;19.30;;;22.30;31.30;;;;;;5032266;28;21009;-86
2022/05/12 10:36:40;;;;;;;20.47;19.63;;;22.50;29.90;;;;;;5031978;28;20443;-86
2022/05/12 10:39:25;;;;;;;20.97;19.67;;;22.50;30.00;;;;;;5033310;28;20416;-85
2022/05/12 10:42:05;;;;;;;20.70;19.80;;;22.40;30.00;;;;;;5032150;28;20506;-86
2022/05/12 10:45:00;;;;;;;20.57;19.77;;;22.40;29.90;;;;;;5031848;28;20415;-86
2022/05/12 10:47:50;;;;;;;20.50;19.50;;;22.30;30.00;;;;;;5031969;28;20423;-86
2022/05/12 10:50:25;;;;;;;21.00;20.00;;;22.30;29.40;;;;;;5032026;28;20538;-86
2022/05/12 10:53:05;;;;;;;20.90;19.80;;;22.40;29.70;;;;;;5031725;28;20869;-85
2022/05/12 10:55:41;;;;;;;20.67;19.70;;;22.50;30.00;;;;;;5031532;28;20415;-86
2022/05/12 10:58:19;;;;;;;20.37;19.47;;;22.60;30.10;;;;;;5031876;28;20399;-85
2022/05/12 11:00:57;;;;;;;20.40;19.40;;;22.70;29.40;;;;;;5025207;28;20462;-85
2022/05/12 11:03:29;;;;;;;19.00;18.27;;;22.90;28.90;;;;;;5031567;28;20437;-84
2022/05/12 11:06:02;;;;;;;20.90;19.80;;;23.00;28.80;;;;;;5030699;28;20428;-87
2022/05/12 11:08:43;;;;;;;19.40;18.70;;;23.00;28.20;;;;;;5034113;28;20428;-86
2022/05/12 11:11:24;;;;;;;20.10;19.23;;;23.10;28.50;;;;;;5028591;28;20814;-87
2022/05/12 11:13:59;;;;;;;18.90;17.80;;;22.90;28.20;;;;;;5025256;28;20456;-87
2022/05/12 11:16:46;;;;;;;19.73;18.93;;;22.90;28.60;;;;;;5031125;28;20430;-87
2022/05/12 11:19:21;;;;;;;20.17;19.23;;;23.00;28.50;;;;;;5024133;28;20915;-87
2022/05/12 11:22:01;;;;;;;20.13;19.33;;;23.20;28.90;;;;;;5031164;28;20463;-81
2022/05/12 11:24:49;;;;;;;19.10;18.40;;;23.30;28.10;;;;;;5030108;28;20411;-80
2022/05/12 11:27:39;;;;;;;19.40;18.60;;;23.40;27.80;;;;;;5030689;28;20415;-80
2022/05/12 11:30:45;;;;;;;19.07;18.27;;;23.30;27.80;;;;;;5016863;28;20906;-80
2022/05/12 11:33:25;;;;;;;19.67;18.70;;;23.20;28.10;;;;;;4954525;28;20457;-81
2022/05/12 11:35:53;;;;;;;19.27;18.47;;;23.20;27.90;;;;;;4968088;28;20903;-80
2022/05/12 11:38:44;;;;;;;19.20;18.33;;;23.20;27.70;;;;;;4986377;28;20841;-79
2022/05/12 11:41:27;;;;;;;18.40;17.70;;;23.20;27.80;;;;;;4999248;28;20471;-79
2022/05/12 11:44:29;;;;;;;19.50;18.70;;;23.30;27.70;;;;;;5022892;28;20422;-80
2022/05/12 11:47:07;;;;;;;18.87;18.17;;;23.30;27.60;;;;;;5007672;28;20937;-80
2022/05/12 11:49:51;;;;;;;20.17;19.27;;;23.40;27.80;;;;;;5030619;28;20447;-80
2022/05/12 11:52:50;;;;;;;18.80;18.10;;;23.30;27.50;;;;;;5031860;28;20407;-80
2022/05/12 11:56:01;;;;;;;19.20;18.40;;;23.30;27.20;;;;;;5029478;28;20500;-80
2022/05/12 11:58:42;;;;;;;20.07;19.17;;;23.30;27.60;;;;;;5003437;28;20207;-80
2022/05/12 12:01:34;;;;;;;19.50;18.60;;;23.50;27.70;;;;;;5031764;28;20503;-80
2022/05/12 12:04:03;;;;;;;19.30;18.50;;;23.50;27.30;;;;;;5031896;28;20412;-81
2022/05/12 12:06:50;;;;;;;19.40;18.37;;;23.50;27.10;;;;;;5032008;28;20946;-89
2022/05/12 12:09:27;;;;;;;20.13;19.20;;;23.50;26.90;;;;;;5030593;28;20411;-80
2022/05/12 12:11:53;;;;;;;19.23;18.43;;;23.50;26.80;;;;;;5030256;28;20456;-80
2022/05/12 12:14:48;;;;;;;19.00;18.10;;;23.60;27.00;;;;;;5030249;28;21029;-80
2022/05/12 12:17:25;;;;;;;22.30;20.63;;;23.70;27.20;;;;;;5030299;28;20418;-80
2022/05/12 12:19:55;;;;;;;19.47;18.37;;;23.70;26.50;;;;;;5030288;28;20434;-79
2022/05/12 12:22:46;;;;;;;19.50;18.50;;;23.80;27.10;;;;;;5030166;28;20977;-80
2022/05/12 12:25:19;;;;;;;19.40;18.47;;;23.70;26.70;;;;;;5030367;28;20412;-80
2022/05/12 12:27:55;;;;;;;20.03;18.83;;;23.60;26.60;;;;;;5030119;28;20930;-80
2022/05/12 12:30:36;;;;;;;19.70;18.77;;;23.60;26.80;;;;;;5033755;28;20421;-80
2022/05/12 12:33:13;;;;;;;18.70;18.00;;;23.60;26.90;;;;;;5033554;28;20462;-80
2022/05/12 12:36:17;;;;;;;20.00;19.10;;;23.70;27.20;;;;;;5034805;28;20438;-80
2022/05/12 12:38:48;;;;;;;20.25;19.15;;;23.70;26.90;;;;;;5019893;28;20414;-80
2022/05/12 12:41:29;;;;;;;19.80;18.77;;;23.80;27.20;;;;;;5034732;28;20250;-80
2022/05/12 12:44:20;;;;;;;18.50;17.70;;;23.90;27.10;;;;;;5033306;28;20430;-80
2022/05/12 12:47:08;;;;;;;20.33;19.23;;;23.90;27.10;;;;;;5033431;28;21134;-80
2022/05/12 12:49:49;;;;;;;18.50;17.73;;;23.80;27.40;;;;;;5033354;28;20407;-80
2022/05/12 12:52:17;;;;;;;19.00;18.00;;;23.70;27.70;;;;;;5033567;28;20945;-80
2022/05/12 12:57:49;;;;;;;19.77;18.87;;;23.60;28.30;;;;;;5034291;28;20474;-81
2022/05/12 13:00:27;;;;;;;20.00;19.13;;;23.70;27.70;;;;;;5032078;28;20419;-78
2022/05/12 13:03:01;;;;;;;19.30;18.60;;;23.70;28.70;;;;;;5033441;28;20757;-78
2022/05/12 13:05:28;;;;;;;20.80;19.50;;;23.80;27.90;;;;;;5032004;28;20419;-79
2022/05/12 13:08:01;;;;;;;19.43;18.53;;;23.70;27.70;;;;;;5031754;28;20415;-79
2022/05/12 13:10:28;;;;;;;18.73;18.03;;;23.70;28.00;;;;;;5032943;28;20414;-78